createdAt,value
2023-04-28T00:00:24.883Z,2.05
2023-04-28T00:01:24.953Z,2.05
2023-04-28T00:02:25.030Z,2.03
2023-04-28T00:03:25.079Z,2.02
2023-04-28T00:04:25.431Z,2.04
2023-04-28T00:05:25.195Z,2.02
2023-04-28T00:06:25.163Z,2.02
2023-04-28T00:07:25.198Z,2.01
2023-04-28T00:08:25.267Z,1.99
2023-04-28T00:09:25.269Z,2.04
2023-04-28T00:10:25.345Z,2.04
2023-04-28T00:11:25.369Z,2.03
2023-04-28T00:12:25.416Z,2.03
2023-04-28T00:13:25.479Z,2.00
2023-04-28T00:14:25.525Z,2.01
2023-04-28T00:15:25.591Z,2.01
2023-04-28T00:16:25.701Z,1.98
2023-04-28T00:17:25.735Z,1.99
2023-04-28T00:18:25.744Z,2.00
2023-04-28T00:19:25.727Z,1.96
2023-04-28T00:20:25.725Z,1.99
2023-04-28T00:21:25.738Z,1.96
2023-04-28T00:22:25.735Z,1.98
2023-04-28T00:23:25.748Z,1.94
2023-04-28T00:24:25.775Z,1.94
2023-04-28T00:25:25.812Z,1.94
2023-04-28T00:26:25.847Z,1.92
2023-04-28T00:27:25.870Z,1.96
2023-04-28T00:29:25.891Z,1.92
2023-04-28T00:30:25.872Z,1.93
2023-04-28T00:31:25.891Z,1.91
2023-04-28T00:32:25.851Z,1.93
2023-04-28T00:33:25.798Z,1.90
2023-04-28T00:34:25.793Z,1.88
2023-04-28T00:35:25.772Z,1.90
2023-04-28T00:36:25.734Z,1.90
2023-04-28T00:37:25.705Z,1.89
2023-04-28T00:38:25.682Z,1.88
2023-04-28T00:39:25.648Z,1.85
2023-04-28T00:40:25.602Z,1.88
2023-04-28T00:41:25.564Z,1.84
2023-04-28T00:42:25.532Z,1.86
2023-04-28T00:43:25.511Z,1.82
2023-04-28T00:44:25.479Z,1.81
2023-04-28T00:45:25.499Z,1.79
2023-04-28T00:46:25.433Z,1.80
2023-04-28T00:47:25.443Z,1.79
2023-04-28T00:48:25.380Z,1.79
2023-04-28T00:49:25.371Z,1.79
2023-04-28T00:50:25.354Z,1.75
2023-04-28T00:51:25.354Z,1.78
2023-04-28T00:52:25.302Z,1.78
2023-04-28T00:53:25.271Z,1.76
2023-04-28T00:54:25.249Z,1.75
2023-04-28T00:55:25.227Z,1.74
2023-04-28T00:56:25.206Z,1.75
2023-04-28T00:57:25.198Z,1.75
2023-04-28T00:58:25.160Z,1.75
2023-04-28T00:59:25.146Z,1.75
2023-04-28T01:00:25.126Z,1.76
2023-04-28T01:01:25.157Z,1.73
2023-04-28T01:02:25.173Z,1.74
2023-04-28T01:03:25.197Z,1.76
2023-04-28T01:04:25.211Z,1.74
2023-04-28T01:05:25.015Z,1.73
2023-04-28T01:06:25.028Z,1.71
2023-04-28T01:07:25.060Z,1.69
2023-04-28T01:08:25.125Z,1.69
2023-04-28T01:09:25.149Z,1.69
2023-04-28T01:10:25.194Z,1.72
2023-04-28T01:11:25.207Z,1.68
2023-04-28T01:12:25.237Z,1.68
2023-04-28T01:13:25.279Z,1.67
2023-04-28T01:14:25.378Z,1.67
2023-04-28T01:15:25.355Z,1.67
2023-04-28T01:16:25.402Z,1.68
2023-04-28T01:17:25.477Z,1.65
2023-04-28T01:18:25.418Z,1.65
2023-04-28T01:19:25.452Z,1.66
2023-04-28T01:20:25.496Z,1.65
2023-04-28T01:21:25.518Z,1.62
2023-04-28T01:22:25.533Z,1.61
2023-04-28T01:23:25.554Z,1.59
2023-04-28T01:24:25.598Z,1.59
2023-04-28T01:25:25.629Z,1.59
2023-04-28T01:26:25.680Z,1.56
2023-04-28T01:27:25.708Z,1.57
2023-04-28T01:28:25.736Z,1.55
2023-04-28T01:29:25.782Z,1.52
2023-04-28T01:30:25.809Z,1.54
2023-04-28T01:31:25.912Z,1.51
2023-04-28T01:32:25.896Z,1.53
2023-04-28T01:33:25.945Z,1.50
2023-04-28T01:34:25.976Z,1.49
2023-04-28T01:35:26.025Z,1.50
2023-04-28T01:36:26.059Z,1.48
2023-04-28T01:37:26.145Z,1.45
2023-04-28T01:38:26.141Z,1.47
2023-04-28T01:39:26.191Z,1.48
2023-04-28T01:40:26.220Z,1.47
2023-04-28T01:41:26.296Z,1.46
2023-04-28T01:42:26.315Z,1.45
2023-04-28T01:43:26.375Z,1.46
2023-04-28T01:44:26.395Z,1.42
2023-04-28T01:45:26.461Z,1.41
2023-04-28T01:46:26.523Z,1.41
2023-04-28T01:47:26.548Z,1.41
2023-04-28T01:48:26.580Z,1.39
2023-04-28T01:49:26.626Z,1.41
2023-04-28T01:50:26.668Z,1.41
2023-04-28T01:51:26.676Z,1.39
2023-04-28T01:52:26.687Z,1.38
2023-04-28T01:53:26.733Z,1.38
2023-04-28T01:54:26.752Z,1.39
2023-04-28T01:55:26.819Z,1.40
2023-04-28T01:56:26.870Z,1.40
2023-04-28T01:57:26.897Z,1.35
2023-04-28T01:58:26.964Z,1.36
2023-04-28T01:59:27.019Z,1.33
2023-04-28T02:00:27.027Z,1.34
2023-04-28T02:01:27.114Z,1.32
2023-04-28T02:02:27.218Z,1.31
2023-04-28T02:03:27.226Z,1.29
2023-04-28T02:04:27.182Z,1.30
2023-04-28T02:05:27.125Z,1.29
2023-04-28T02:06:27.093Z,1.28
2023-04-28T02:07:27.095Z,1.27
2023-04-28T02:08:27.076Z,1.27
2023-04-28T02:09:27.069Z,1.31
2023-04-28T02:10:27.083Z,1.26
2023-04-28T02:11:27.109Z,1.27
2023-04-28T02:12:27.107Z,1.25
2023-04-28T02:13:27.084Z,1.23
2023-04-28T02:14:27.055Z,1.23
2023-04-28T02:15:27.116Z,1.22
2023-04-28T02:16:27.184Z,1.24
2023-04-28T02:17:27.189Z,1.22
2023-04-28T02:18:27.156Z,1.21
2023-04-28T02:19:27.149Z,1.23
2023-04-28T02:20:27.209Z,1.24
2023-04-28T02:21:27.242Z,1.23
2023-04-28T02:22:27.266Z,1.21
2023-04-28T02:23:27.308Z,1.22
2023-04-28T02:24:27.348Z,1.20
2023-04-28T02:25:27.397Z,1.21
2023-04-28T02:26:27.440Z,1.21
2023-04-28T02:27:27.457Z,1.20
2023-04-28T02:28:27.493Z,1.17
2023-04-28T02:29:27.509Z,1.20
2023-04-28T02:30:27.588Z,1.17
2023-04-28T02:31:27.657Z,1.18
2023-04-28T02:32:27.728Z,1.14
2023-04-28T02:33:27.716Z,1.17
2023-04-28T02:34:27.757Z,1.15
2023-04-28T02:35:27.812Z,1.15
2023-04-28T02:36:27.876Z,1.14
2023-04-28T02:37:27.870Z,1.17
2023-04-28T02:38:27.896Z,1.17
2023-04-28T02:39:27.921Z,1.16
2023-04-28T02:40:27.920Z,1.15
2023-04-28T02:41:27.944Z,1.15
2023-04-28T02:42:27.950Z,1.15
2023-04-28T02:43:27.964Z,1.13
2023-04-28T02:44:27.998Z,1.15
2023-04-28T02:45:28.004Z,1.16
2023-04-28T02:46:28.049Z,1.15
2023-04-28T02:47:27.992Z,1.15
2023-04-28T02:48:27.957Z,1.13
2023-04-28T02:49:27.933Z,1.15
2023-04-28T02:50:27.909Z,1.14
2023-04-28T02:51:27.881Z,1.12
2023-04-28T02:52:27.870Z,1.10
2023-04-28T02:53:27.839Z,1.11
2023-04-28T02:54:27.817Z,1.10
2023-04-28T02:55:27.809Z,1.10
2023-04-28T02:56:27.804Z,1.11
2023-04-28T02:57:27.864Z,1.11
2023-04-28T02:58:27.892Z,1.11
2023-04-28T02:59:27.928Z,1.09
2023-04-28T03:00:27.933Z,1.08
2023-04-28T03:01:27.939Z,1.07
2023-04-28T03:02:28.019Z,1.09
2023-04-28T03:03:28.061Z,1.07
2023-04-28T03:04:27.997Z,1.07
2023-04-28T03:05:27.873Z,1.07
2023-04-28T03:06:27.861Z,1.06
2023-04-28T03:07:27.843Z,1.05
2023-04-28T03:08:27.842Z,1.06
2023-04-28T03:09:27.835Z,1.08
2023-04-28T03:10:27.841Z,1.07
2023-04-28T03:11:27.836Z,1.06
2023-04-28T03:12:27.872Z,1.07
2023-04-28T03:13:27.875Z,1.07
2023-04-28T03:14:27.890Z,1.07
2023-04-28T03:15:27.957Z,1.08
2023-04-28T03:16:27.967Z,1.09
2023-04-28T03:17:27.987Z,1.07
2023-04-28T03:18:28.028Z,1.07
2023-04-28T03:19:28.037Z,1.07
2023-04-28T03:20:28.054Z,1.08
2023-04-28T03:21:28.108Z,1.07
2023-04-28T03:22:28.133Z,1.07
2023-04-28T03:23:28.146Z,1.07
2023-04-28T03:24:28.214Z,1.06
2023-04-28T03:25:28.235Z,1.07
2023-04-28T03:26:28.278Z,1.07
2023-04-28T03:27:28.304Z,1.06
2023-04-28T03:28:28.313Z,1.05
2023-04-28T03:29:28.317Z,1.05
2023-04-28T03:30:28.330Z,1.06
2023-04-28T03:31:28.436Z,1.04
2023-04-28T03:32:28.421Z,1.04
2023-04-28T03:33:28.401Z,1.05
2023-04-28T03:34:28.390Z,1.04
2023-04-28T03:35:28.423Z,1.04
2023-04-28T03:36:28.472Z,1.05
2023-04-28T03:37:28.521Z,1.04
2023-04-28T03:38:28.568Z,1.04
2023-04-28T03:39:28.632Z,1.06
2023-04-28T03:40:28.628Z,1.04
2023-04-28T03:41:28.650Z,1.04
2023-04-28T03:42:28.648Z,1.05
2023-04-28T03:43:28.656Z,1.05
2023-04-28T03:44:28.678Z,1.05
2023-04-28T03:45:28.698Z,1.07
2023-04-28T03:46:28.771Z,1.05
2023-04-28T03:47:28.686Z,1.04
2023-04-28T03:48:28.721Z,1.05
2023-04-28T03:49:28.692Z,1.06
2023-04-28T03:50:28.714Z,1.04
2023-04-28T03:51:28.718Z,1.04
2023-04-28T03:52:28.720Z,1.03
2023-04-28T03:53:28.724Z,1.04
2023-04-28T03:54:28.730Z,1.03
2023-04-28T03:55:28.725Z,1.01
2023-04-28T03:56:28.729Z,1.03
2023-04-28T03:57:28.701Z,1.03
2023-04-28T03:58:28.705Z,1.01
2023-04-28T03:59:28.730Z,1.01
2023-04-28T04:00:28.663Z,1.00
2023-04-28T04:01:28.681Z,0.99
2023-04-28T04:02:28.778Z,0.99
2023-04-28T04:03:28.846Z,1.00
2023-04-28T04:04:28.947Z,1.00
2023-04-28T04:05:28.823Z,0.98
2023-04-28T04:06:28.713Z,0.99
2023-04-28T04:07:28.719Z,1.00
2023-04-28T04:08:28.683Z,0.99
2023-04-28T04:09:28.689Z,0.99
2023-04-28T04:10:28.654Z,0.98
2023-04-28T04:11:28.658Z,0.98
2023-04-28T04:12:28.691Z,0.98
2023-04-28T04:13:28.624Z,0.96
2023-04-28T04:14:28.634Z,0.98
2023-04-28T04:15:28.683Z,0.97
2023-04-28T04:16:28.716Z,0.96
2023-04-28T04:17:28.642Z,0.96
2023-04-28T04:18:28.602Z,0.96
2023-04-28T04:19:28.561Z,0.97
2023-04-28T04:20:28.557Z,0.96
2023-04-28T04:21:28.542Z,0.96
2023-04-28T04:22:28.557Z,0.96
2023-04-28T04:23:28.539Z,0.96
2023-04-28T04:24:28.453Z,0.96
2023-04-28T04:25:28.439Z,0.97
2023-04-28T04:26:28.497Z,0.95
2023-04-28T04:27:28.404Z,0.95
2023-04-28T04:28:28.365Z,0.94
2023-04-28T04:29:28.357Z,0.93
2023-04-28T04:30:28.314Z,0.93
2023-04-28T04:31:28.312Z,0.93
2023-04-28T04:32:28.314Z,0.93
2023-04-28T04:33:28.249Z,0.93
2023-04-28T04:34:28.253Z,0.94
2023-04-28T04:35:28.221Z,0.92
2023-04-28T04:36:28.198Z,0.91
2023-04-28T04:37:28.174Z,0.91
2023-04-28T04:38:28.158Z,0.91
2023-04-28T04:39:28.139Z,0.91
2023-04-28T04:40:28.123Z,0.92
2023-04-28T04:41:28.123Z,0.91
2023-04-28T04:42:28.148Z,0.90
2023-04-28T04:43:28.057Z,0.91
2023-04-28T04:44:28.037Z,0.91
2023-04-28T04:45:28.046Z,0.90
2023-04-28T04:46:28.086Z,0.89
2023-04-28T04:47:28.019Z,0.91
2023-04-28T04:48:27.957Z,0.90
2023-04-28T04:49:27.954Z,0.90
2023-04-28T04:50:27.950Z,0.90
2023-04-28T04:51:27.968Z,0.89
2023-04-28T04:52:27.941Z,0.89
2023-04-28T04:53:27.953Z,0.86
2023-04-28T04:54:27.936Z,0.88
2023-04-28T04:55:27.943Z,0.87
2023-04-28T04:56:27.967Z,0.87
2023-04-28T04:57:27.960Z,0.86
2023-04-28T04:58:27.978Z,0.88
2023-04-28T04:59:27.973Z,0.89
2023-04-28T05:00:28.002Z,0.86
2023-04-28T05:01:28.033Z,0.87
2023-04-28T05:02:28.049Z,0.88
2023-04-28T05:03:28.053Z,0.88
2023-04-28T05:04:28.056Z,0.89
2023-04-28T05:05:28.117Z,0.86
2023-04-28T05:06:28.016Z,0.86
2023-04-28T05:07:28.004Z,0.85
2023-04-28T05:08:28.000Z,0.87
2023-04-28T05:09:27.996Z,0.90
2023-04-28T05:10:27.973Z,0.86
2023-04-28T05:11:27.949Z,0.86
2023-04-28T05:12:27.932Z,0.88
2023-04-28T05:13:27.904Z,0.87
2023-04-28T05:14:27.899Z,0.87
2023-04-28T05:15:27.865Z,0.87
2023-04-28T05:16:27.920Z,0.85
2023-04-28T05:17:27.845Z,0.85
2023-04-28T05:18:27.806Z,0.85
2023-04-28T05:19:27.788Z,0.84
2023-04-28T05:20:27.771Z,0.86
2023-04-28T05:21:27.754Z,0.85
2023-04-28T05:22:27.780Z,0.88
2023-04-28T05:23:27.811Z,0.86
2023-04-28T05:24:27.701Z,0.87
2023-04-28T05:25:27.709Z,0.85
2023-04-28T05:26:27.686Z,0.86
2023-04-28T05:27:27.686Z,0.86
2023-04-28T05:28:27.632Z,0.87
2023-04-28T05:29:27.597Z,0.87
2023-04-28T05:30:27.630Z,0.87
2023-04-28T05:31:27.620Z,0.88
2023-04-28T05:32:27.620Z,0.84
2023-04-28T05:33:27.545Z,0.84
2023-04-28T05:34:27.566Z,0.94
2023-04-28T05:35:27.491Z,1.04
2023-04-28T05:36:27.914Z,1.20
2023-04-28T05:37:27.553Z,1.30
2023-04-28T05:38:27.502Z,1.31
2023-04-28T05:39:27.480Z,1.33
2023-04-28T05:40:27.441Z,1.41
2023-04-28T05:41:27.538Z,1.64
2023-04-28T05:42:27.410Z,1.83
2023-04-28T05:43:27.337Z,2.03
2023-04-28T05:44:27.371Z,2.17
2023-04-28T05:45:27.306Z,2.68
2023-04-28T05:47:27.354Z,3.47
2023-04-28T05:48:27.309Z,3.77
2023-04-28T05:49:27.339Z,4.00
2023-04-28T05:50:27.314Z,4.44
2023-04-28T05:51:27.354Z,4.61
2023-04-28T05:52:27.321Z,4.99
2023-04-28T05:53:27.323Z,5.40
2023-04-28T05:54:27.897Z,5.43
2023-04-28T05:55:27.279Z,6.04
2023-04-28T05:56:27.328Z,6.38
2023-04-28T05:57:27.291Z,6.51
2023-04-28T05:58:27.248Z,6.93
2023-04-28T05:59:27.278Z,7.50
2023-04-28T06:00:27.191Z,8.22
2023-04-28T06:01:27.181Z,8.11
2023-04-28T06:03:27.219Z,8.50
2023-04-28T06:04:27.553Z,8.92
2023-04-28T06:05:27.360Z,9.06
2023-04-28T06:06:27.301Z,9.09
2023-04-28T06:07:27.033Z,9.00
2023-04-28T06:08:27.005Z,9.06
2023-04-28T06:09:27.053Z,8.57
2023-04-28T06:10:26.993Z,9.14
2023-04-28T06:11:26.947Z,8.53
2023-04-28T06:12:27.023Z,8.43
2023-04-28T06:13:26.884Z,8.34
2023-04-28T06:14:26.929Z,8.76
2023-04-28T06:15:26.911Z,9.10
2023-04-28T06:16:26.908Z,9.21
2023-04-28T06:17:26.839Z,9.22
2023-04-28T06:18:26.844Z,9.82
2023-04-28T06:19:26.821Z,10.10
2023-04-28T06:20:26.783Z,10.12
2023-04-28T06:21:26.727Z,10.17
2023-04-28T06:22:26.689Z,10.42
2023-04-28T06:23:26.676Z,10.49
2023-04-28T06:24:26.735Z,10.15
2023-04-28T06:25:26.619Z,10.17
2023-04-28T06:26:26.594Z,10.25
2023-04-28T06:27:26.559Z,10.11
2023-04-28T06:28:26.535Z,10.55
2023-04-28T06:29:26.492Z,10.11
2023-04-28T06:30:26.542Z,10.12
2023-04-28T06:31:26.491Z,10.27
2023-04-28T06:32:26.469Z,10.63
2023-04-28T06:33:26.396Z,10.19
2023-04-28T06:34:26.484Z,10.55
2023-04-28T06:35:26.337Z,11.50
2023-04-28T06:36:26.298Z,13.37
2023-04-28T06:37:26.272Z,13.71
2023-04-28T06:38:26.266Z,14.13
2023-04-28T06:39:26.205Z,14.54
2023-04-28T06:40:26.247Z,12.09
2023-04-28T06:41:26.172Z,11.12
2023-04-28T06:42:27.028Z,11.73
2023-04-28T06:43:26.105Z,11.91
2023-04-28T06:44:26.098Z,12.30
2023-04-28T06:45:26.079Z,10.85
2023-04-28T06:46:26.111Z,10.30
2023-04-28T06:47:26.057Z,10.25
2023-04-28T06:48:26.010Z,8.59
2023-04-28T06:49:26.014Z,8.82
2023-04-28T06:50:25.948Z,8.91
2023-04-28T06:51:25.911Z,9.16
2023-04-28T06:52:33.441Z,9.19
2023-04-28T06:53:26.857Z,9.21
2023-04-28T06:54:25.839Z,9.21
2023-04-28T06:55:25.803Z,9.03
2023-04-28T06:56:25.823Z,8.76
2023-04-28T06:57:25.758Z,8.66
2023-04-28T06:58:25.812Z,9.19
2023-04-28T06:59:25.684Z,8.91
2023-04-28T07:00:25.737Z,8.40
2023-04-28T07:01:25.744Z,8.26
2023-04-28T07:02:25.679Z,8.21
2023-04-28T07:03:25.798Z,8.35
2023-04-28T07:04:25.677Z,8.09
2023-04-28T07:05:25.563Z,7.89
2023-04-28T07:06:25.531Z,8.12
2023-04-28T07:07:25.498Z,7.82
2023-04-28T07:08:25.504Z,7.74
2023-04-28T07:09:25.460Z,7.89
2023-04-28T07:10:25.446Z,7.50
2023-04-28T07:11:25.410Z,7.55
2023-04-28T07:12:25.451Z,7.33
2023-04-28T07:13:25.559Z,7.63
2023-04-28T07:14:25.345Z,7.27
2023-04-28T07:15:25.304Z,7.06
2023-04-28T07:16:25.411Z,7.04
2023-04-28T07:17:25.404Z,7.10
2023-04-28T07:18:25.351Z,6.84
2023-04-28T07:19:25.355Z,6.79
2023-04-28T07:20:25.346Z,6.47
2023-04-28T07:21:25.429Z,6.58
2023-04-28T07:22:25.358Z,6.45
2023-04-28T07:23:25.323Z,6.46
2023-04-28T07:24:25.314Z,6.46
2023-04-28T07:25:25.294Z,6.31
2023-04-28T07:26:25.287Z,6.00
2023-04-28T07:27:25.227Z,6.39
2023-04-28T07:28:25.196Z,6.02
2023-04-28T07:29:25.161Z,5.87
2023-04-28T07:30:27.285Z,5.88
2023-04-28T07:31:25.139Z,5.75
2023-04-28T07:32:25.188Z,5.62
2023-04-28T07:33:25.067Z,5.89
2023-04-28T07:34:25.128Z,5.29
2023-04-28T07:35:25.026Z,5.11
2023-04-28T07:36:24.966Z,4.98
2023-04-28T07:37:24.930Z,5.35
2023-04-28T07:38:25.460Z,5.66
2023-04-28T07:39:25.012Z,5.57
2023-04-28T07:40:24.846Z,6.86
2023-04-28T07:41:24.800Z,7.06
2023-04-28T07:42:24.810Z,4.94
2023-04-28T07:43:24.720Z,2.05
2023-04-28T07:44:24.709Z,0.79
2023-04-28T07:45:24.709Z,0.34
2023-04-28T07:46:24.720Z,0.34
2023-04-28T07:47:24.641Z,0.34
2023-04-28T07:48:24.778Z,0.34
2023-04-28T07:49:24.697Z,0.34
2023-04-28T07:50:24.655Z,0.34
2023-04-28T07:51:24.645Z,0.34
2023-04-28T07:52:24.692Z,0.34
2023-04-28T07:53:24.659Z,0.34
2023-04-28T07:54:24.732Z,0.34
2023-04-28T07:55:24.686Z,0.34
2023-04-28T07:56:24.772Z,0.34
2023-04-28T07:57:25.002Z,0.34
2023-04-28T07:58:24.661Z,0.34
2023-04-28T07:59:24.667Z,0.44
2023-04-28T08:00:25.519Z,0.51
2023-04-28T08:01:24.701Z,0.54
2023-04-28T08:02:25.026Z,0.59
2023-04-28T08:03:24.773Z,0.59
2023-04-28T08:04:25.146Z,0.61
2023-04-28T08:05:24.698Z,0.67
2023-04-28T08:06:24.598Z,0.60
2023-04-28T08:07:24.586Z,0.64
2023-04-28T08:08:24.504Z,0.70
2023-04-28T08:09:24.509Z,0.78
2023-04-28T08:10:24.492Z,1.05
2023-04-28T08:11:24.479Z,0.97
2023-04-28T08:12:24.535Z,0.91
2023-04-28T08:13:24.476Z,0.99
2023-04-28T08:14:24.524Z,0.93
2023-04-28T08:15:24.567Z,1.09
2023-04-28T08:16:24.654Z,1.62
2023-04-28T08:17:24.681Z,2.20
2023-04-28T08:18:24.702Z,2.89
2023-04-28T08:19:24.698Z,3.65
2023-04-28T08:20:24.969Z,4.26
2023-04-28T08:21:24.728Z,5.23
2023-04-28T08:22:24.735Z,6.06
2023-04-28T08:23:24.746Z,6.78
2023-04-28T08:24:24.711Z,7.68
2023-04-28T08:25:24.702Z,8.48
2023-04-28T08:26:24.892Z,9.44
2023-04-28T08:27:24.655Z,10.50
2023-04-28T08:28:24.661Z,11.35
2023-04-28T08:29:24.666Z,13.14
2023-04-28T08:30:24.695Z,14.11
2023-04-28T08:31:24.673Z,14.14
2023-04-28T08:32:24.641Z,10.12
2023-04-28T08:33:24.600Z,10.44
2023-04-28T08:34:25.617Z,4.52
2023-04-28T08:35:24.574Z,3.60
2023-04-28T08:36:24.742Z,4.16
2023-04-28T08:37:24.529Z,5.25
2023-04-28T08:38:24.580Z,7.11
2023-04-28T08:39:24.611Z,9.16
2023-04-28T08:40:24.482Z,10.40
2023-04-28T08:41:24.466Z,11.81
2023-04-28T08:42:24.550Z,14.04
2023-04-28T08:43:26.049Z,17.18
2023-04-28T08:44:24.431Z,20.65
2023-04-28T08:45:24.744Z,24.76
2023-04-28T08:46:24.379Z,26.86
2023-04-28T08:47:24.397Z,32.42
2023-04-28T08:48:24.488Z,36.23
2023-04-28T08:49:24.501Z,36.40
2023-04-28T08:50:24.377Z,37.36
2023-04-28T08:51:24.321Z,40.00
2023-04-28T08:52:24.284Z,44.68
2023-04-28T08:53:24.247Z,54.60
2023-04-28T08:54:26.643Z,55.23
2023-04-28T08:55:24.207Z,63.21
2023-04-28T08:56:25.012Z,67.84
2023-04-28T08:57:24.163Z,54.92
2023-04-28T08:58:24.170Z,55.10
2023-04-28T08:59:24.112Z,56.32
2023-04-28T09:00:24.970Z,60.24
2023-04-28T09:01:24.113Z,65.09
2023-04-28T09:02:24.054Z,73.44
2023-04-28T09:03:24.265Z,73.49
2023-04-28T09:04:24.262Z,82.50
2023-04-28T09:05:23.999Z,84.07
2023-04-28T09:06:23.906Z,88.37
2023-04-28T09:07:23.827Z,91.48
2023-04-28T09:08:23.817Z,94.58
2023-04-28T09:09:23.767Z,95.88
2023-04-28T09:10:23.810Z,96.17
2023-04-28T09:11:23.797Z,98.28
2023-04-28T09:12:23.655Z,102.22
2023-04-28T09:13:23.671Z,102.27
2023-04-28T09:14:23.561Z,109.37
2023-04-28T09:15:23.540Z,114.77
2023-04-28T09:16:23.600Z,115.23
2023-04-28T09:17:23.540Z,116.19
2023-04-28T09:18:23.431Z,117.41
2023-04-28T09:19:23.401Z,116.54
2023-04-28T09:20:23.378Z,125.81
2023-04-28T09:21:23.338Z,127.55
2023-04-28T09:22:26.792Z,228.89
2023-04-28T09:23:23.284Z,220.61
2023-04-28T09:24:23.207Z,203.30
2023-04-28T09:25:23.204Z,265.39
2023-04-28T09:26:23.143Z,276.48
2023-04-28T09:27:23.112Z,317.05
2023-04-28T09:28:23.137Z,302.15
2023-04-28T09:29:23.063Z,257.25
2023-04-28T09:30:23.049Z,223.74
2023-04-28T09:31:23.090Z,218.44
2023-04-28T09:32:23.353Z,217.63
2023-04-28T09:33:23.020Z,204.26
2023-04-28T09:34:22.889Z,194.66
2023-04-28T09:35:22.900Z,197.19
2023-04-28T09:36:22.855Z,188.85
2023-04-28T09:37:22.867Z,185.00
2023-04-28T09:38:23.481Z,178.15
2023-04-28T09:39:23.061Z,175.78
2023-04-28T09:40:23.473Z,176.44
2023-04-28T09:41:22.716Z,181.95
2023-04-28T09:42:22.730Z,190.07
2023-04-28T09:43:22.636Z,186.58
2023-04-28T09:44:22.702Z,197.29
2023-04-28T09:45:22.682Z,187.26
2023-04-28T09:46:22.711Z,166.12
2023-04-28T09:47:22.777Z,163.33
2023-04-28T09:48:22.775Z,159.04
2023-04-28T09:49:22.817Z,203.27
2023-04-28T09:50:22.898Z,263.40
2023-04-28T09:51:22.894Z,238.71
2023-04-28T09:52:23.269Z,219.87
2023-04-28T09:53:22.954Z,202.94
2023-04-28T09:54:22.992Z,193.47
2023-04-28T09:55:23.063Z,187.14
2023-04-28T09:56:23.088Z,186.10
2023-04-28T09:57:23.114Z,183.14
2023-04-28T09:58:23.143Z,174.59
2023-04-28T09:59:23.197Z,168.22
2023-04-28T10:00:23.314Z,163.36
2023-04-28T10:01:24.053Z,160.03
2023-04-28T10:02:42.772Z,156.57
2023-04-28T10:03:26.068Z,156.96
2023-04-28T10:04:23.325Z,157.42
2023-04-28T10:05:23.457Z,159.72
2023-04-28T10:06:23.149Z,160.57
2023-04-28T10:07:23.124Z,159.15
2023-04-28T10:08:23.080Z,154.12
2023-04-28T10:09:24.844Z,147.35
2023-04-28T10:10:22.990Z,141.45
2023-04-28T10:11:22.950Z,140.97
2023-04-28T10:12:22.918Z,136.00
2023-04-28T10:13:22.945Z,136.18
2023-04-28T10:14:22.825Z,133.42
2023-04-28T10:15:23.468Z,134.28
2023-04-28T10:16:22.803Z,134.51
2023-04-28T10:17:22.780Z,134.98
2023-04-28T10:18:22.694Z,135.15
2023-04-28T10:19:22.622Z,127.66
2023-04-28T10:20:22.597Z,124.74
2023-04-28T10:21:22.595Z,123.07
2023-04-28T10:22:22.570Z,123.36
2023-04-28T10:23:22.591Z,121.36
2023-04-28T10:24:22.490Z,121.54
2023-04-28T10:25:22.469Z,119.58
2023-04-28T10:26:22.401Z,118.09
2023-04-28T10:27:22.377Z,116.35
2023-04-28T10:28:22.379Z,114.23
2023-04-28T10:29:22.328Z,111.61
2023-04-28T10:30:28.062Z,111.77
2023-04-28T10:31:23.321Z,113.19
2023-04-28T10:32:22.207Z,118.16
2023-04-28T10:33:22.142Z,122.10
2023-04-28T10:34:23.039Z,122.66
2023-04-28T10:35:22.182Z,142.61
2023-04-28T10:36:30.158Z,117.71
2023-04-28T10:37:23.510Z,108.42
2023-04-28T10:38:22.084Z,109.04
2023-04-28T10:39:21.958Z,107.20
2023-04-28T10:40:21.913Z,105.38
2023-04-28T10:41:21.891Z,105.16
2023-04-28T10:42:21.838Z,104.40
2023-04-28T10:43:21.819Z,105.76
2023-04-28T10:44:21.786Z,75.54
2023-04-28T10:45:21.832Z,49.72
2023-04-28T10:46:21.939Z,53.28
2023-04-28T10:47:21.948Z,54.88
2023-04-28T10:48:21.913Z,55.66
2023-04-28T10:49:21.922Z,59.66
2023-04-28T10:50:26.484Z,59.28
2023-04-28T10:51:22.890Z,59.44
2023-04-28T10:52:21.851Z,59.93
2023-04-28T10:53:21.866Z,60.50
2023-04-28T10:54:21.790Z,60.37
2023-04-28T10:55:22.568Z,59.72
2023-04-28T10:56:21.770Z,61.10
2023-04-28T10:57:21.651Z,63.03
2023-04-28T10:58:21.619Z,65.71
2023-04-28T10:59:21.594Z,67.55
2023-04-28T11:00:21.596Z,69.72
2023-04-28T11:01:21.872Z,70.66
2023-04-28T11:02:21.785Z,75.20
2023-04-28T11:03:21.783Z,65.68
2023-04-28T11:04:21.783Z,65.77
2023-04-28T11:05:21.792Z,66.46
2023-04-28T11:06:21.600Z,67.15
2023-04-28T11:07:21.542Z,65.97
2023-04-28T11:08:21.506Z,65.99
2023-04-28T11:09:22.736Z,67.34
2023-04-28T11:10:21.439Z,69.01
2023-04-28T11:11:21.427Z,68.10
2023-04-28T11:12:21.398Z,67.92
2023-04-28T11:13:21.429Z,68.69
2023-04-28T11:14:21.307Z,63.44
2023-04-28T11:15:21.274Z,68.19
2023-04-28T11:16:21.285Z,68.32
2023-04-28T11:17:21.207Z,68.28
2023-04-28T11:18:21.177Z,62.67
2023-04-28T11:19:21.112Z,63.72
2023-04-28T11:20:21.194Z,67.50
2023-04-28T11:21:21.144Z,65.59
2023-04-28T11:22:21.023Z,64.13
2023-04-28T11:23:20.981Z,64.78
2023-04-28T11:24:20.997Z,63.01
2023-04-28T11:25:20.942Z,61.07
2023-04-28T11:26:20.926Z,60.26
2023-04-28T11:27:20.975Z,60.99
2023-04-28T11:28:20.821Z,55.85
2023-04-28T11:29:20.856Z,57.46
2023-04-28T11:30:20.893Z,57.67
2023-04-28T11:31:20.809Z,58.21
2023-04-28T11:32:20.705Z,57.67
2023-04-28T11:33:20.661Z,57.49
2023-04-28T11:34:20.623Z,56.60
2023-04-28T11:35:20.590Z,61.17
2023-04-28T11:36:20.596Z,61.81
2023-04-28T11:37:20.529Z,65.12
2023-04-28T11:38:20.498Z,62.58
2023-04-28T11:39:20.470Z,62.70
2023-04-28T11:40:20.427Z,63.35
2023-04-28T11:41:20.430Z,62.70
2023-04-28T11:42:20.390Z,62.64
2023-04-28T11:43:20.366Z,64.58
2023-04-28T11:44:20.331Z,65.63
2023-04-28T11:45:20.358Z,66.47
2023-04-28T11:46:20.408Z,58.66
2023-04-28T11:47:20.236Z,57.39
2023-04-28T11:48:20.209Z,54.80
2023-04-28T11:49:20.180Z,52.40
2023-04-28T11:50:20.185Z,48.62
2023-04-28T11:51:20.142Z,46.68
2023-04-28T11:52:20.095Z,45.76
2023-04-28T11:53:21.185Z,41.37
2023-04-28T11:54:20.039Z,38.69
2023-04-28T11:55:20.011Z,37.05
2023-04-28T11:56:19.985Z,33.20
2023-04-28T11:57:19.954Z,32.26
2023-04-28T11:58:19.959Z,30.43
2023-04-28T11:59:19.909Z,30.33
2023-04-28T12:00:20.194Z,28.52
2023-04-28T12:01:19.854Z,27.08
2023-04-28T12:02:19.838Z,27.34
2023-04-28T12:03:19.874Z,26.78
2023-04-28T12:04:19.973Z,25.59
2023-04-28T12:05:19.798Z,25.86
2023-04-28T12:06:19.734Z,25.35
2023-04-28T12:07:19.698Z,24.41
2023-04-28T12:08:19.654Z,22.78
2023-04-28T12:09:19.636Z,22.14
2023-04-28T12:10:19.592Z,21.61
2023-04-28T12:11:20.673Z,21.42
2023-04-28T12:12:22.960Z,20.69
2023-04-28T12:13:20.549Z,20.74
2023-04-28T12:14:19.474Z,20.89
2023-04-28T12:15:20.434Z,21.09
2023-04-28T12:16:19.535Z,20.62
2023-04-28T12:17:19.463Z,20.19
2023-04-28T12:18:19.467Z,20.12
2023-04-28T12:19:19.325Z,19.92
2023-04-28T12:20:19.314Z,19.93
2023-04-28T12:21:19.260Z,19.68
2023-04-28T12:22:19.226Z,19.68
2023-04-28T12:23:19.186Z,19.53
2023-04-28T12:24:19.152Z,19.79
2023-04-28T12:25:19.107Z,19.28
2023-04-28T12:26:19.081Z,19.57
2023-04-28T12:27:19.071Z,18.71
2023-04-28T12:28:19.044Z,18.74
2023-04-28T12:29:19.011Z,18.80
2023-04-28T12:30:18.978Z,18.81
2023-04-28T12:31:18.960Z,18.78
2023-04-28T12:32:18.916Z,18.77
2023-04-28T12:33:18.876Z,17.29
2023-04-28T12:34:18.840Z,18.08
2023-04-28T12:35:18.806Z,18.05
2023-04-28T12:36:18.785Z,17.81
2023-04-28T12:37:18.766Z,17.22
2023-04-28T12:38:18.756Z,16.39
2023-04-28T12:39:18.682Z,16.27
2023-04-28T12:40:18.688Z,16.30
2023-04-28T12:41:18.658Z,15.83
2023-04-28T12:42:18.625Z,15.32
2023-04-28T12:43:18.592Z,15.29
2023-04-28T12:44:18.561Z,14.71
2023-04-28T12:45:18.529Z,14.96
2023-04-28T12:46:18.560Z,14.68
2023-04-28T12:47:18.497Z,14.98
2023-04-28T12:48:18.463Z,14.84
2023-04-28T12:49:18.439Z,15.08
2023-04-28T12:50:18.432Z,14.12
2023-04-28T12:51:18.432Z,14.22
2023-04-28T12:52:18.365Z,13.68
2023-04-28T12:53:18.381Z,13.45
2023-04-28T12:54:18.336Z,13.55
2023-04-28T12:55:18.301Z,13.34
2023-04-28T12:56:18.272Z,13.21
2023-04-28T12:57:18.294Z,13.06
2023-04-28T12:58:18.317Z,13.25
2023-04-28T12:59:18.208Z,13.19
2023-04-28T13:00:18.242Z,13.15
2023-04-28T13:01:18.351Z,12.83
2023-04-28T13:02:18.253Z,13.09
2023-04-28T13:03:18.216Z,13.10
2023-04-28T13:04:18.418Z,13.12
2023-04-28T13:05:18.087Z,12.94
2023-04-28T13:06:18.125Z,13.13
2023-04-28T13:07:18.032Z,13.17
2023-04-28T13:08:17.993Z,13.03